createdAt,value
2022-09-28T00:03:35.774Z,9.10
2022-09-28T00:07:49.921Z,9.00
2022-09-28T00:12:03.614Z,9.00
2022-09-28T00:16:20.709Z,9.00
2022-09-28T00:20:34.563Z,8.90
2022-09-28T00:24:48.339Z,8.90
2022-09-28T00:29:03.335Z,8.90
2022-09-28T00:33:19.427Z,8.90
2022-09-28T00:37:33.411Z,8.80
2022-09-28T00:41:48.178Z,8.80
2022-09-28T00:46:04.539Z,8.80
2022-09-28T00:50:26.101Z,8.80
2022-09-28T00:54:40.651Z,8.80
2022-09-28T00:58:55.438Z,8.80
2022-09-28T01:03:10.386Z,8.80
2022-09-28T01:07:26.068Z,8.80
2022-09-28T01:11:41.017Z,8.80
2022-09-28T01:16:02.170Z,8.80
2022-09-28T01:20:51.242Z,8.80
2022-09-28T01:25:13.103Z,8.70
2022-09-28T01:29:47.869Z,8.70
2022-09-28T01:34:06.091Z,8.70
2022-09-28T01:38:23.128Z,8.60
2022-09-28T01:42:41.030Z,8.50
2022-09-28T01:47:00.881Z,8.50
2022-09-28T01:51:20.947Z,8.40
2022-09-28T01:55:39.838Z,8.40
2022-09-28T02:00:00.422Z,8.30
2022-09-28T02:04:21.167Z,8.30
2022-09-28T02:08:41.313Z,8.20
2022-09-28T02:12:59.957Z,8.20
2022-09-28T02:17:16.139Z,8.10
2022-09-28T02:21:42.795Z,8.10
2022-09-28T02:26:02.645Z,8.10
2022-09-28T02:30:18.035Z,8.00
2022-09-28T02:34:32.304Z,7.90
2022-09-28T02:38:47.745Z,7.90
2022-09-28T02:43:09.534Z,7.90
2022-09-28T02:47:35.191Z,7.90
2022-09-28T02:52:09.328Z,7.80
2022-09-28T02:56:42.405Z,7.80
2022-09-28T03:01:04.539Z,7.80
2022-09-28T03:05:23.102Z,7.70
2022-09-28T03:09:41.220Z,7.70
2022-09-28T03:13:57.321Z,7.70
2022-09-28T03:18:20.095Z,7.60
2022-09-28T03:22:33.902Z,7.60
2022-09-28T03:26:47.713Z,7.60
2022-09-28T03:31:03.702Z,7.60
2022-09-28T03:35:17.484Z,7.50
2022-09-28T03:39:31.608Z,7.60
2022-09-28T03:43:45.542Z,7.60
2022-09-28T03:48:02.961Z,7.60
2022-09-28T03:52:17.679Z,7.70
2022-09-28T03:56:31.442Z,7.70
2022-09-28T04:01:07.538Z,7.80
2022-09-28T04:05:22.711Z,7.80
2022-09-28T04:09:36.505Z,7.90
2022-09-28T04:13:50.610Z,7.90
2022-09-28T04:18:05.592Z,7.90
2022-09-28T04:22:38.416Z,7.90
2022-09-28T04:26:52.146Z,7.90
2022-09-28T04:31:11.310Z,7.90
2022-09-28T04:35:25.409Z,7.90
2022-09-28T04:39:43.929Z,7.90
2022-09-28T04:44:00.730Z,7.90
2022-09-28T04:48:14.429Z,7.90
2022-09-28T04:52:48.822Z,7.90
2022-09-28T04:57:06.072Z,7.90
2022-09-28T05:01:23.633Z,7.90
2022-09-28T05:05:46.423Z,8.00
2022-09-28T05:10:35.623Z,8.00
2022-09-28T05:14:50.812Z,8.10
2022-09-28T05:19:06.235Z,8.10
2022-09-28T05:23:20.258Z,8.20
2022-09-28T05:27:34.096Z,8.30
2022-09-28T05:31:55.477Z,8.30
2022-09-28T05:36:18.025Z,8.40
2022-09-28T05:40:32.104Z,8.40
2022-09-28T05:44:45.953Z,8.40
2022-09-28T05:49:01.674Z,8.50
2022-09-28T05:53:15.833Z,8.50
2022-09-28T05:57:29.738Z,8.60
2022-09-28T06:01:44.552Z,8.60
2022-09-28T06:06:02.103Z,8.70
2022-09-28T06:10:17.319Z,8.80
2022-09-28T06:14:31.612Z,8.90
2022-09-28T06:18:45.328Z,8.90
2022-09-28T06:23:00.376Z,8.90
2022-09-28T06:27:14.393Z,8.90
2022-09-28T06:31:30.091Z,8.90
2022-09-28T06:35:44.119Z,8.90
2022-09-28T06:39:59.313Z,8.90
2022-09-28T06:44:13.222Z,8.80
2022-09-28T06:48:46.655Z,8.80
2022-09-28T06:53:09.744Z,8.70
2022-09-28T06:57:37.445Z,8.70
2022-09-28T07:01:51.478Z,8.70
2022-09-28T07:06:26.799Z,8.70
2022-09-28T07:11:20.427Z,8.70
2022-09-28T07:15:55.481Z,8.80
2022-09-28T07:20:18.231Z,8.90
2022-09-28T07:24:38.528Z,9.00
2022-09-28T07:29:10.982Z,9.20
2022-09-28T07:33:33.255Z,9.20
2022-09-28T07:38:09.545Z,9.30
2022-09-28T07:42:24.106Z,9.30
2022-09-28T07:46:38.177Z,9.20
2022-09-28T07:51:00.292Z,9.20
2022-09-28T07:55:28.531Z,9.20
2022-09-28T07:59:54.610Z,9.30
2022-09-28T08:04:28.343Z,9.30
2022-09-28T08:08:44.912Z,9.40
2022-09-28T08:13:04.785Z,9.40
2022-09-28T08:17:59.101Z,9.60
2022-09-28T08:22:17.634Z,9.60
2022-09-28T08:26:34.201Z,9.70
2022-09-28T08:30:49.016Z,9.70
2022-09-28T08:35:26.284Z,9.80
2022-09-28T08:40:02.307Z,9.80
2022-09-28T08:44:39.276Z,9.70
2022-09-28T08:49:26.728Z,9.70
2022-09-28T08:53:54.559Z,9.70
2022-09-28T08:58:14.518Z,9.60
2022-09-28T09:02:33.891Z,9.60
2022-09-28T09:07:24.528Z,9.50
2022-09-28T09:12:00.834Z,9.40
2022-09-28T09:16:26.775Z,9.40
2022-09-28T09:20:57.419Z,9.20
2022-09-28T09:25:20.733Z,9.10
2022-09-28T09:29:52.819Z,9.00
2022-09-28T09:34:25.275Z,9.00
2022-09-28T09:39:14.940Z,9.20
2022-09-28T09:44:23.372Z,9.20
2022-09-28T09:48:42.911Z,9.40
2022-09-28T09:53:01.714Z,9.70
2022-09-28T09:57:21.238Z,9.90
2022-09-28T10:01:47.161Z,10.20
2022-09-28T10:06:09.843Z,10.30
2022-09-28T10:10:29.328Z,10.50
2022-09-28T10:14:56.114Z,10.70
2022-09-28T10:19:14.362Z,10.80
2022-09-28T10:23:49.915Z,10.80
2022-09-28T10:28:06.599Z,10.80
2022-09-28T10:32:25.291Z,10.70
2022-09-28T10:36:55.185Z,10.70
2022-09-28T10:41:13.533Z,10.70
2022-09-28T10:45:40.355Z,10.70
2022-09-28T10:49:57.187Z,10.70
2022-09-28T10:54:17.354Z,10.50
2022-09-28T10:58:39.377Z,10.50
2022-09-28T11:02:57.878Z,10.50
2022-09-28T11:07:19.098Z,10.60
2022-09-28T11:11:42.011Z,10.70
2022-09-28T11:15:57.016Z,10.60
2022-09-28T11:20:31.669Z,10.60
2022-09-28T11:24:49.149Z,10.60
2022-09-28T11:29:04.061Z,10.60
2022-09-28T11:33:42.314Z,10.70
2022-09-28T11:38:20.586Z,10.80
2022-09-28T11:43:08.210Z,11.00
2022-09-28T11:47:35.417Z,11.30
2022-09-28T11:51:52.600Z,11.60
2022-09-28T11:56:15.805Z,11.80
2022-09-28T12:00:35.595Z,12.10
2022-09-28T12:04:57.830Z,12.40
2022-09-28T12:09:20.010Z,12.70
2022-09-28T12:13:48.994Z,13.10
2022-09-28T12:18:09.022Z,13.30
2022-09-28T12:22:26.572Z,13.40
2022-09-28T12:26:47.165Z,13.40
2022-09-28T12:31:11.021Z,13.30
2022-09-28T12:35:37.264Z,13.50
2022-09-28T12:40:08.953Z,13.40
2022-09-28T12:44:37.133Z,13.50
2022-09-28T12:54:06.778Z,14.00
2022-09-28T12:58:32.608Z,14.10
2022-09-28T13:03:03.694Z,14.10
2022-09-28T13:07:26.315Z,13.90
2022-09-28T13:11:49.551Z,13.60
2022-09-28T13:16:11.512Z,13.20
2022-09-28T13:20:32.239Z,12.70
2022-09-28T13:24:47.569Z,12.40
2022-09-28T13:29:05.864Z,12.20
2022-09-28T13:33:36.775Z,12.40
2022-09-28T13:38:29.512Z,12.70
2022-09-28T13:43:10.818Z,12.80
2022-09-28T13:47:47.095Z,13.00
2022-09-28T13:52:07.222Z,13.00
2022-09-28T13:56:31.445Z,12.90
2022-09-28T14:00:50.571Z,12.80
2022-09-28T14:05:07.036Z,12.80
2022-09-28T14:09:46.707Z,13.00
2022-09-28T14:14:02.992Z,13.10
2022-09-28T14:18:31.312Z,13.20
2022-09-28T14:22:57.856Z,13.40
2022-09-28T14:27:40.167Z,13.50
2022-09-28T14:31:54.207Z,13.30
2022-09-28T14:36:43.698Z,13.10
2022-09-28T14:41:13.734Z,12.70
2022-09-28T14:45:38.459Z,12.50
2022-09-28T14:50:02.070Z,12.30
2022-09-28T14:54:20.565Z,12.10
2022-09-28T14:58:38.592Z,12.10
2022-09-28T15:02:55.111Z,11.90
2022-09-28T15:07:19.990Z,11.90
2022-09-28T15:11:33.809Z,11.90
2022-09-28T15:15:52.106Z,11.80
2022-09-28T15:20:25.349Z,11.80
2022-09-28T15:24:40.269Z,11.70
2022-09-28T15:28:54.314Z,11.80
2022-09-28T15:33:43.695Z,11.90
2022-09-28T15:37:57.380Z,11.90
2022-09-28T15:42:11.198Z,11.80
2022-09-28T15:46:25.725Z,11.70
2022-09-28T15:50:45.835Z,11.60
2022-09-28T15:55:00.975Z,11.60
2022-09-28T15:59:24.285Z,11.70
2022-09-28T16:03:38.326Z,11.80
2022-09-28T16:07:56.386Z,11.80
2022-09-28T16:12:12.928Z,11.70
2022-09-28T16:16:30.086Z,11.50
2022-09-28T16:20:44.569Z,11.40
2022-09-28T16:25:02.055Z,11.20
2022-09-28T16:29:26.666Z,11.00
2022-09-28T16:33:44.253Z,10.90
2022-09-28T16:38:10.458Z,10.80
2022-09-28T16:42:27.879Z,10.70
2022-09-28T16:46:41.832Z,10.60
2022-09-28T16:50:55.838Z,10.50
2022-09-28T16:59:53.432Z,10.40
2022-09-28T17:04:07.549Z,10.40
2022-09-28T17:08:23.717Z,10.40
2022-09-28T17:12:37.708Z,10.40
2022-09-28T17:17:14.978Z,10.30
2022-09-28T17:21:28.488Z,10.20
2022-09-28T17:25:42.761Z,10.30
2022-09-28T17:29:56.629Z,10.40
2022-09-28T17:34:13.278Z,10.50
2022-09-28T17:38:27.320Z,10.50
2022-09-28T17:42:41.078Z,10.40
2022-09-28T17:46:54.894Z,10.30
2022-09-28T17:51:10.910Z,10.20
2022-09-28T17:55:28.610Z,10.20
2022-09-28T17:59:42.340Z,10.00
2022-09-28T18:03:56.031Z,9.90
2022-09-28T18:08:14.221Z,9.80
2022-09-28T18:12:27.925Z,9.70
2022-09-28T18:16:41.640Z,9.60
2022-09-28T18:20:55.323Z,9.60
2022-09-28T18:25:11.141Z,9.50
2022-09-28T18:29:24.963Z,9.50
2022-09-28T18:33:38.682Z,9.40
2022-09-28T18:37:52.581Z,9.50
2022-09-28T18:42:08.097Z,9.50
2022-09-28T18:46:21.964Z,9.40
2022-09-28T18:50:35.799Z,9.40
2022-09-28T18:54:50.746Z,9.30
2022-09-28T18:59:11.752Z,9.20
2022-09-28T19:03:26.479Z,9.20
2022-09-28T19:07:40.597Z,9.10
2022-09-28T19:11:54.255Z,9.00
2022-09-28T19:16:11.759Z,9.00
2022-09-28T19:20:25.773Z,8.90
2022-09-28T19:24:39.514Z,8.90
2022-09-28T19:28:53.349Z,8.70
2022-09-28T19:33:08.965Z,8.70
2022-09-28T19:37:24.155Z,8.60
2022-09-28T19:41:47.858Z,8.50
2022-09-28T19:46:05.882Z,8.50
2022-09-28T19:50:21.980Z,8.40
2022-09-28T19:54:36.774Z,8.30
2022-09-28T19:58:51.043Z,8.20
2022-09-28T20:03:04.929Z,8.20
2022-09-28T20:07:20.335Z,8.20
2022-09-28T20:11:35.295Z,8.20
2022-09-28T20:15:49.746Z,8.20
2022-09-28T20:20:03.824Z,8.30
2022-09-28T20:24:19.353Z,8.30
2022-09-28T20:28:33.327Z,8.30
2022-09-28T20:32:49.652Z,8.30
2022-09-28T20:37:03.675Z,8.30
2022-09-28T20:41:21.941Z,8.30
2022-09-28T20:45:37.190Z,8.40
2022-09-28T20:49:51.066Z,8.30
2022-09-28T20:54:04.932Z,8.30
2022-09-28T20:58:20.199Z,8.20
2022-09-28T21:02:36.594Z,8.10
2022-09-28T21:06:50.511Z,8.00
2022-09-28T21:11:04.332Z,8.00
2022-09-28T21:15:19.649Z,7.90
2022-09-28T21:19:33.528Z,7.80
2022-09-28T21:23:47.771Z,7.80
2022-09-28T21:28:01.941Z,7.80
2022-09-28T21:32:17.184Z,7.70
2022-09-28T21:36:31.078Z,7.70
2022-09-28T21:40:45.173Z,7.70
2022-09-28T21:44:59.629Z,7.60
2022-09-28T21:49:14.811Z,7.60
2022-09-28T21:53:31.147Z,7.50
2022-09-28T21:57:47.474Z,7.40
2022-09-28T22:02:01.718Z,7.40
2022-09-28T22:06:18.427Z,7.40
2022-09-28T22:10:32.189Z,7.30
2022-09-28T22:14:46.272Z,7.30
2022-09-28T22:19:00.791Z,7.20
2022-09-28T22:23:16.164Z,7.20
2022-09-28T22:27:33.062Z,7.20
2022-09-28T22:31:46.863Z,7.30
2022-09-28T22:36:00.632Z,7.30
2022-09-28T22:40:16.047Z,7.30
2022-09-28T22:44:29.954Z,7.40
2022-09-28T22:48:47.767Z,7.50
2022-09-28T22:53:02.000Z,7.60
2022-09-28T22:57:17.150Z,7.70
2022-09-28T23:01:31.593Z,7.80
2022-09-28T23:05:54.020Z,8.00
2022-09-28T23:10:08.355Z,8.10
2022-09-28T23:14:23.507Z,8.20
2022-09-28T23:18:40.859Z,8.20
2022-09-28T23:22:54.566Z,8.30
2022-09-28T23:27:08.223Z,8.30
2022-09-28T23:31:24.897Z,8.40
2022-09-28T23:35:38.712Z,8.40
2022-09-28T23:39:52.447Z,8.40
2022-09-28T23:44:06.311Z,8.50
2022-09-28T23:48:21.377Z,8.50
2022-09-28T23:52:35.284Z,8.50
2022-09-28T23:56:49.012Z,8.50
